createdAt,value
2018-06-28T00:03:02.797Z,15.30
2018-06-28T00:08:53.978Z,15.30
2018-06-28T00:13:56.982Z,15.20
2018-06-28T00:19:04.978Z,15.20
2018-06-28T00:24:08.085Z,15.20
2018-06-28T00:29:11.371Z,15.10
2018-06-28T00:34:15.324Z,15.00
2018-06-28T00:39:18.382Z,15.00
2018-06-28T00:44:39.143Z,15.00
2018-06-28T00:49:42.560Z,14.90
2018-06-28T00:54:45.594Z,14.80
2018-06-28T00:59:48.678Z,14.80
2018-06-28T01:04:52.486Z,14.70
2018-06-28T01:09:55.644Z,14.70
2018-06-28T01:15:10.407Z,14.70
2018-06-28T01:20:13.437Z,14.60
2018-06-28T01:25:16.494Z,14.60
2018-06-28T01:30:19.611Z,14.60
2018-06-28T01:35:22.682Z,14.50
2018-06-28T01:40:25.757Z,14.50
2018-06-28T01:45:29.313Z,14.50
2018-06-28T01:50:32.396Z,14.40
2018-06-28T01:55:35.433Z,14.30
2018-06-28T02:00:38.885Z,14.30
2018-06-28T02:11:09.522Z,14.00
2018-06-28T02:16:14.053Z,13.80
2018-06-28T02:21:17.161Z,13.70
2018-06-28T02:26:38.565Z,13.60
2018-06-28T02:31:41.845Z,13.50
2018-06-28T02:36:44.912Z,13.40
2018-06-28T02:41:48.137Z,13.30
2018-06-28T02:46:55.249Z,13.20
2018-06-28T02:51:58.640Z,13.20
2018-06-28T02:57:01.670Z,13.10
2018-06-28T03:02:12.165Z,13.10
2018-06-28T03:07:15.970Z,12.90
2018-06-28T03:12:19.177Z,12.90
2018-06-28T03:17:22.292Z,13.00
2018-06-28T03:22:25.338Z,13.00
2018-06-28T03:27:29.066Z,12.90
2018-06-28T03:32:32.097Z,12.90
2018-06-28T03:37:35.292Z,12.90
2018-06-28T03:42:38.378Z,12.90
2018-06-28T03:47:42.168Z,13.00
2018-06-28T03:52:45.193Z,13.00
2018-06-28T03:57:48.263Z,13.00
2018-06-28T04:02:51.292Z,13.00
2018-06-28T04:08:09.352Z,13.10
2018-06-28T04:13:12.497Z,13.20
2018-06-28T04:18:29.662Z,13.30
2018-06-28T04:23:32.737Z,13.50
2018-06-28T04:28:35.773Z,13.60
2018-06-28T04:33:38.818Z,13.80
2018-06-28T04:38:42.367Z,14.00
2018-06-28T04:43:45.448Z,14.10
2018-06-28T04:48:50.362Z,14.20
2018-06-28T04:53:53.390Z,14.50
2018-06-28T04:59:16.389Z,14.70
2018-06-28T05:04:19.597Z,15.00
2018-06-28T05:09:22.626Z,15.40
2018-06-28T05:14:26.062Z,15.60
2018-06-28T05:19:29.141Z,15.90
2018-06-28T05:24:32.189Z,16.20
2018-06-28T05:29:35.233Z,16.60
2018-06-28T05:34:38.300Z,17.00
2018-06-28T05:39:41.330Z,17.40
2018-06-28T05:44:44.368Z,17.70
2018-06-28T05:49:47.440Z,18.00
2018-06-28T05:54:51.321Z,18.30
2018-06-28T06:00:11.234Z,18.60
2018-06-28T06:05:25.010Z,18.90
2018-06-28T06:10:28.641Z,19.20
2018-06-28T06:15:31.741Z,19.40
2018-06-28T06:20:35.303Z,19.70
2018-06-28T06:25:38.361Z,20.00
2018-06-28T06:30:42.931Z,20.20
2018-06-28T06:35:46.117Z,20.40
2018-06-28T06:40:49.375Z,20.70
2018-06-28T06:45:52.418Z,21.00
2018-06-28T06:50:55.459Z,21.30
2018-06-28T06:55:59.520Z,21.50
2018-06-28T07:01:02.564Z,21.70
2018-06-28T07:06:05.738Z,21.90
2018-06-28T07:12:11.957Z,22.10
2018-06-28T07:17:18.046Z,22.20
2018-06-28T07:22:21.210Z,22.40
2018-06-28T07:27:24.704Z,22.60
2018-06-28T07:32:27.753Z,22.70
2018-06-28T07:37:30.800Z,22.90
2018-06-28T07:42:33.827Z,23.20
2018-06-28T07:47:36.870Z,23.20
2018-06-28T07:57:43.445Z,23.00
2018-06-28T08:02:46.491Z,23.00
2018-06-28T08:07:49.521Z,23.00
2018-06-28T08:12:53.306Z,23.00
2018-06-28T08:17:56.367Z,23.10
2018-06-28T08:23:00.020Z,23.30
2018-06-28T08:28:03.169Z,23.40
2018-06-28T08:33:06.205Z,23.50
2018-06-28T08:38:09.244Z,23.60
2018-06-28T08:43:12.336Z,23.70
2018-06-28T08:48:16.314Z,23.70
2018-06-28T08:53:19.520Z,23.90
2018-06-28T08:58:23.685Z,24.00
2018-06-28T09:03:26.745Z,24.00
2018-06-28T09:08:29.794Z,24.00
2018-06-28T09:13:32.870Z,24.10
2018-06-28T09:23:39.206Z,24.30
2018-06-28T09:28:42.229Z,24.30
2018-06-28T09:33:45.435Z,24.30
2018-06-28T09:38:48.506Z,24.20
2018-06-28T09:43:52.909Z,24.30
2018-06-28T09:48:56.045Z,24.30
2018-06-28T09:53:59.081Z,24.30
2018-06-28T09:59:02.751Z,24.40
2018-06-28T10:04:05.846Z,24.50
2018-06-28T10:09:09.897Z,24.50
2018-06-28T10:14:12.952Z,24.60
2018-06-28T10:19:16.606Z,24.60
2018-06-28T10:24:19.981Z,24.70
2018-06-28T10:29:23.238Z,24.80
2018-06-28T10:34:26.965Z,24.80
2018-06-28T10:39:30.017Z,24.80
2018-06-28T10:44:33.108Z,24.60
2018-06-28T10:49:36.918Z,24.50
2018-06-28T10:54:39.950Z,24.50
2018-06-28T10:59:42.988Z,24.40
2018-06-28T11:04:48.426Z,24.50
2018-06-28T11:09:51.786Z,24.70
2018-06-28T11:14:55.736Z,24.70
2018-06-28T11:19:58.826Z,24.70
2018-06-28T11:25:02.697Z,24.70
2018-06-28T11:30:05.977Z,24.80
2018-06-28T11:35:09.079Z,25.00
2018-06-28T11:40:12.243Z,25.20
2018-06-28T11:45:15.284Z,25.20
2018-06-28T11:50:18.361Z,25.10
2018-06-28T11:55:21.400Z,25.10
2018-06-28T12:00:24.449Z,25.20
2018-06-28T12:10:31.233Z,25.20
2018-06-28T12:15:34.309Z,25.30
2018-06-28T12:20:37.356Z,25.30
2018-06-28T12:25:40.405Z,25.40
2018-06-28T12:30:44.129Z,25.40
2018-06-28T12:35:47.156Z,25.50
2018-06-28T12:40:50.196Z,25.40
2018-06-28T12:45:53.282Z,25.60
2018-06-28T12:50:56.345Z,25.70
2018-06-28T12:56:31.726Z,25.70
2018-06-28T13:01:34.933Z,25.70
2018-06-28T13:06:38.017Z,25.50
2018-06-28T13:11:41.056Z,25.50
2018-06-28T13:16:44.130Z,25.60
2018-06-28T13:21:47.177Z,25.70
2018-06-28T13:26:50.227Z,25.80
2018-06-28T13:31:53.276Z,25.80
2018-06-28T13:36:56.404Z,25.70
2018-06-28T13:41:59.534Z,25.80
2018-06-28T13:47:02.617Z,25.90
2018-06-28T13:52:06.101Z,25.90
2018-06-28T13:57:09.421Z,25.90
2018-06-28T14:02:12.464Z,25.80
2018-06-28T14:07:15.530Z,25.90
2018-06-28T14:12:18.625Z,25.80
2018-06-28T14:17:21.669Z,25.90
2018-06-28T14:22:24.732Z,25.90
2018-06-28T14:27:27.791Z,26.00
2018-06-28T14:32:31.993Z,26.10
2018-06-28T14:37:35.040Z,26.10
2018-06-28T14:42:38.097Z,26.30
2018-06-28T14:47:45.362Z,26.30
2018-06-28T14:52:48.390Z,26.20
2018-06-28T14:57:52.249Z,26.00
2018-06-28T15:02:55.541Z,26.00
2018-06-28T15:07:58.614Z,26.10
2018-06-28T15:13:02.285Z,25.90
2018-06-28T15:18:05.883Z,25.90
2018-06-28T15:23:09.378Z,26.00
2018-06-28T15:28:12.973Z,26.10
2018-06-28T15:33:16.205Z,26.20
2018-06-28T15:38:35.837Z,26.10
2018-06-28T15:43:39.905Z,26.10
2018-06-28T15:48:43.029Z,26.20
2018-06-28T15:53:46.069Z,26.30
2018-06-28T16:04:16.815Z,26.20
2018-06-28T16:09:20.341Z,26.20
2018-06-28T16:14:24.438Z,26.20
2018-06-28T16:19:27.619Z,26.20
2018-06-28T16:24:30.692Z,26.30
2018-06-28T16:29:53.685Z,26.10
2018-06-28T16:34:56.734Z,26.00
2018-06-28T16:40:00.469Z,26.10
2018-06-28T16:45:06.933Z,26.10
2018-06-28T16:50:10.033Z,26.00
2018-06-28T16:55:13.097Z,26.10
2018-06-28T17:00:16.189Z,26.20
2018-06-28T17:05:19.291Z,26.20
2018-06-28T17:10:22.347Z,26.10
2018-06-28T17:15:25.404Z,26.10
2018-06-28T17:20:28.487Z,26.10
2018-06-28T17:25:31.597Z,26.00
2018-06-28T17:30:34.659Z,25.90
2018-06-28T17:35:37.785Z,25.90
2018-06-28T17:40:40.937Z,25.90
2018-06-28T17:45:54.402Z,25.90
2018-06-28T17:50:57.477Z,25.90
2018-06-28T17:56:05.578Z,25.90
2018-06-28T18:01:21.004Z,25.90
2018-06-28T18:06:24.173Z,25.80
2018-06-28T18:11:27.453Z,25.70
2018-06-28T18:16:30.641Z,25.60
2018-06-28T18:21:34.261Z,25.50
2018-06-28T18:26:38.084Z,25.50
2018-06-28T18:31:41.240Z,25.40
2018-06-28T18:36:49.670Z,25.30
2018-06-28T18:41:52.854Z,25.20
2018-06-28T18:46:55.901Z,25.10
2018-06-28T18:51:58.992Z,25.00
2018-06-28T18:57:02.028Z,24.90
2018-06-28T19:02:05.253Z,24.80
2018-06-28T19:07:08.522Z,24.70
2018-06-28T19:12:11.585Z,24.60
2018-06-28T19:17:14.634Z,24.50
2018-06-28T19:22:23.184Z,24.40
2018-06-28T19:27:33.297Z,24.30
2018-06-28T19:32:36.335Z,24.20
2018-06-28T19:37:45.194Z,24.10
2018-06-28T19:43:00.896Z,23.90
2018-06-28T19:48:04.149Z,23.80
2018-06-28T19:53:13.609Z,23.70
2018-06-28T19:58:17.564Z,23.50
2018-06-28T20:03:26.201Z,23.40
2018-06-28T20:08:29.257Z,23.30
2018-06-28T20:13:37.789Z,23.20
2018-06-28T20:18:46.694Z,23.10
2018-06-28T20:23:49.828Z,22.90
2018-06-28T20:28:58.194Z,22.80
2018-06-28T20:34:06.708Z,22.60
2018-06-28T20:39:10.403Z,22.50
2018-06-28T20:44:13.547Z,22.30
2018-06-28T20:49:30.668Z,22.20
2018-06-28T20:54:33.711Z,22.10
2018-06-28T20:59:36.777Z,22.00
2018-06-28T21:04:39.858Z,21.90
2018-06-28T21:09:42.978Z,21.80
2018-06-28T21:14:46.048Z,21.90
2018-06-28T21:19:49.441Z,21.90
2018-06-28T21:25:03.497Z,21.70
2018-06-28T21:30:06.913Z,21.50
2018-06-28T21:35:10.116Z,21.40
2018-06-28T21:40:13.156Z,21.30
2018-06-28T21:45:16.201Z,21.20
2018-06-28T21:50:19.241Z,21.10
2018-06-28T21:55:26.973Z,21.00
2018-06-28T22:00:34.017Z,20.90
2018-06-28T22:05:37.048Z,20.80
2018-06-28T22:10:40.095Z,20.70
2018-06-28T22:15:43.128Z,20.60
2018-06-28T22:20:46.204Z,20.50
2018-06-28T22:26:24.206Z,20.40
2018-06-28T22:31:27.248Z,20.30
2018-06-28T22:36:30.287Z,20.20
2018-06-28T22:41:34.479Z,20.20
2018-06-28T22:46:37.542Z,20.00
2018-06-28T22:51:40.589Z,20.00
2018-06-28T22:56:43.609Z,19.90
2018-06-28T23:01:46.676Z,19.70
2018-06-28T23:06:51.177Z,19.60
2018-06-28T23:12:03.870Z,19.50
2018-06-28T23:17:09.730Z,19.40
2018-06-28T23:22:28.623Z,19.30
2018-06-28T23:27:32.009Z,19.20
2018-06-28T23:32:35.120Z,19.10
2018-06-28T23:37:38.332Z,19.10
2018-06-28T23:42:42.944Z,19.00
2018-06-28T23:47:46.013Z,18.90
2018-06-28T23:52:49.605Z,18.80
2018-06-28T23:57:52.661Z,18.80
